Terminal Aerodrome Forecast
Issued by NWS Cleveland, OH

Home | Current Version | Previous Version | Text Only | Print | Product List | Glossary On
Versions: 1 2 3 4 5 6 7 8 9 10 11 12 13 14 15 16 17 18
000
FTUS41 KCLE 261125 CCA
TAFERI
TAF COR
KERI 261125Z 2612/2712 29004KT P6SM SCT015 BKN035
      TEMPO 2612/2614 BKN015
     FM261400 30008KT P6SM SCT250
     FM270000 VRB03KT P6SM SKC=

USA.gov is the U.S. government's official web portal to all federal, state and local government web resources and services.